createdAt,value
2022-12-12T00:00:00.113Z,-4.72
2022-12-12T00:08:23.481Z,-4.80
2022-12-12T00:16:46.497Z,-4.82
2022-12-12T00:25:10.125Z,-4.75
2022-12-12T00:33:33.287Z,-4.77
2022-12-12T00:41:56.188Z,-4.80
2022-12-12T00:50:19.297Z,-4.75
2022-12-12T00:58:42.331Z,-4.72
2022-12-12T01:07:05.303Z,-4.77
2022-12-12T01:15:28.255Z,-4.77
2022-12-12T01:23:51.315Z,-4.72
2022-12-12T01:32:14.328Z,-4.72
2022-12-12T01:40:37.368Z,-4.76
2022-12-12T01:49:13.892Z,-4.75
2022-12-12T01:57:42.070Z,-4.68
2022-12-12T02:06:09.897Z,-4.65
2022-12-12T02:14:37.936Z,-4.68
2022-12-12T02:23:31.824Z,-4.62
2022-12-12T02:32:25.396Z,-4.56
2022-12-12T02:41:10.325Z,-4.62
2022-12-12T02:49:38.726Z,-4.64
2022-12-12T02:58:03.690Z,-4.57
2022-12-12T03:06:52.029Z,-4.54
2022-12-12T03:15:31.792Z,-4.61
2022-12-12T03:24:00.403Z,-4.61
2022-12-12T03:32:28.770Z,-4.57
2022-12-12T03:41:01.357Z,-4.63
2022-12-12T03:49:36.528Z,-4.72
2022-12-12T03:58:05.712Z,-4.74
2022-12-12T04:06:45.875Z,-4.70
2022-12-12T04:15:33.500Z,-4.73
2022-12-12T04:24:20.923Z,-4.71
2022-12-12T04:32:58.089Z,-4.63
2022-12-12T04:41:23.220Z,-4.66
2022-12-12T04:49:50.273Z,-4.73
2022-12-12T04:58:13.559Z,-4.66
2022-12-12T05:06:46.593Z,-4.53
2022-12-12T05:15:10.133Z,-4.50
2022-12-12T05:23:34.973Z,-4.52
2022-12-12T05:31:58.141Z,-4.51
2022-12-12T05:40:22.787Z,-4.40
2022-12-12T05:48:50.714Z,-4.34
2022-12-12T05:57:14.369Z,-4.36
2022-12-12T06:05:37.332Z,-4.38
2022-12-12T06:14:00.478Z,-4.30
2022-12-12T06:22:23.458Z,-4.13
2022-12-12T06:30:46.514Z,-4.04
2022-12-12T06:39:10.154Z,-4.03
2022-12-12T06:47:33.053Z,-4.03
2022-12-12T06:55:55.968Z,-3.91
2022-12-12T07:04:18.883Z,-3.77
2022-12-12T07:12:45.434Z,-3.69
2022-12-12T07:21:14.415Z,-3.65
2022-12-12T07:29:37.305Z,-3.53
2022-12-12T07:38:00.338Z,-3.33
2022-12-12T07:46:25.544Z,-3.20
2022-12-12T07:54:49.480Z,-3.13
2022-12-12T08:03:13.982Z,-3.01
2022-12-12T08:11:39.808Z,-2.85
2022-12-12T08:20:07.071Z,-2.78
2022-12-12T08:28:30.072Z,-2.73
2022-12-12T08:36:54.961Z,-2.60
2022-12-12T08:45:17.914Z,-2.45
2022-12-12T08:53:43.771Z,-2.37
2022-12-12T09:02:06.847Z,-2.32
2022-12-12T09:10:29.896Z,-2.19
2022-12-12T09:18:52.865Z,-2.01
2022-12-12T09:27:16.362Z,-1.88
2022-12-12T09:35:40.025Z,-1.75
2022-12-12T09:44:08.414Z,-1.64
2022-12-12T09:52:38.933Z,-1.47
2022-12-12T10:01:20.626Z,-1.40
2022-12-12T10:09:55.011Z,-1.38
2022-12-12T10:18:45.582Z,-1.35
2022-12-12T10:27:11.717Z,-1.29
2022-12-12T10:36:03.877Z,-1.20
2022-12-12T10:44:47.629Z,-1.16
2022-12-12T10:53:13.214Z,-0.98
2022-12-12T11:02:08.587Z,-0.85
2022-12-12T11:10:37.286Z,-0.82
2022-12-12T11:19:18.803Z,-0.68
2022-12-12T11:27:41.815Z,-0.53
2022-12-12T11:36:06.692Z,-0.38
2022-12-12T11:44:36.550Z,-0.21
2022-12-12T11:53:01.641Z,-0.16
2022-12-12T12:01:39.825Z,-0.20
2022-12-12T12:10:29.148Z,-0.26
2022-12-12T12:19:19.950Z,-0.31
2022-12-12T12:28:17.084Z,-0.32
2022-12-12T12:36:39.963Z,-0.44
2022-12-12T12:45:50.122Z,-0.50
2022-12-12T12:54:41.380Z,-0.52
2022-12-12T13:03:24.548Z,-0.58
2022-12-12T13:11:55.921Z,-0.71
2022-12-12T13:20:25.441Z,-0.76
2022-12-12T13:28:57.669Z,-0.77
2022-12-12T13:37:22.716Z,-0.82
2022-12-12T13:45:46.410Z,-0.92
2022-12-12T13:54:13.593Z,-0.94
2022-12-12T14:02:41.972Z,-0.93
2022-12-12T14:11:11.978Z,-0.88
2022-12-12T14:19:39.710Z,-0.94
2022-12-12T14:28:22.746Z,-1.05
2022-12-12T14:37:15.991Z,-1.11
2022-12-12T14:45:49.173Z,-1.08
2022-12-12T14:54:21.843Z,-1.07
2022-12-12T15:02:52.017Z,-1.12
2022-12-12T15:11:18.245Z,-1.11
2022-12-12T15:19:45.234Z,-1.04
2022-12-12T15:28:15.603Z,-1.02
2022-12-12T15:36:38.458Z,-1.07
2022-12-12T15:45:04.410Z,-1.08
2022-12-12T16:02:43.587Z,-1.09
2022-12-12T16:11:47.967Z,-1.15
2022-12-12T16:20:16.758Z,-1.15
2022-12-12T16:28:39.884Z,-1.10
2022-12-12T16:37:02.792Z,-1.11
2022-12-12T16:45:25.757Z,-1.16
2022-12-12T16:53:49.069Z,-1.18
2022-12-12T17:02:25.965Z,-1.12
2022-12-12T17:10:52.371Z,-1.07
2022-12-12T17:19:33.110Z,-1.08
2022-12-12T17:27:56.012Z,-1.13
2022-12-12T17:36:19.879Z,-1.12
2022-12-12T17:44:43.605Z,-1.05
2022-12-12T17:53:06.516Z,-1.06
2022-12-12T18:01:33.449Z,-1.06
2022-12-12T18:09:56.519Z,-1.05
2022-12-12T18:18:19.481Z,-1.11
2022-12-12T18:26:42.791Z,-1.21
2022-12-12T18:35:06.152Z,-1.24
2022-12-12T18:43:30.754Z,-1.22
2022-12-12T18:51:54.477Z,-1.21
2022-12-12T19:00:17.536Z,-1.28
2022-12-12T19:08:41.106Z,-1.30
2022-12-12T19:17:04.181Z,-1.28
2022-12-12T19:25:27.299Z,-1.25
2022-12-12T19:33:51.203Z,-1.30
2022-12-12T19:42:14.099Z,-1.32
2022-12-12T19:50:37.407Z,-1.33
2022-12-12T19:59:01.369Z,-1.39
2022-12-12T20:07:24.220Z,-1.45
2022-12-12T20:15:47.349Z,-1.50
2022-12-12T20:24:11.971Z,-1.61
2022-12-12T20:32:34.966Z,-1.66
2022-12-12T20:40:58.661Z,-1.67
2022-12-12T20:49:24.038Z,-1.76
2022-12-12T20:57:47.090Z,-1.88
2022-12-12T21:06:18.280Z,-1.94
2022-12-12T21:14:41.171Z,-1.96
2022-12-12T21:23:04.239Z,-1.99
2022-12-12T21:31:31.035Z,-1.92
2022-12-12T21:39:54.838Z,-1.83
2022-12-12T21:48:17.758Z,-1.81
2022-12-12T21:56:41.714Z,-1.86
2022-12-12T22:05:05.145Z,-1.95
2022-12-12T22:13:28.087Z,-2.07
2022-12-12T22:21:51.565Z,-2.05
2022-12-12T22:30:14.663Z,-1.99
2022-12-12T22:38:38.664Z,-2.09
2022-12-12T22:47:01.741Z,-2.21
2022-12-12T22:55:24.713Z,-2.25
2022-12-12T23:03:48.858Z,-2.20
2022-12-12T23:12:11.698Z,-2.17
2022-12-12T23:20:34.567Z,-2.23
2022-12-12T23:28:59.184Z,-2.25
2022-12-12T23:37:24.016Z,-2.21
2022-12-12T23:45:46.982Z,-2.24
2022-12-12T23:54:13.357Z,-2.26
